createdAt,value
2023-06-09T00:01:37.032Z,53.94
2023-06-09T00:04:40.114Z,54.39
2023-06-09T00:07:43.716Z,54.30
2023-06-09T00:10:47.895Z,54.25
2023-06-09T00:13:50.874Z,54.36
2023-06-09T00:16:54.047Z,54.57
2023-06-09T00:20:02.676Z,54.52
2023-06-09T00:23:05.873Z,55.05
2023-06-09T00:26:10.212Z,55.47
2023-06-09T00:29:13.128Z,55.31
2023-06-09T00:32:16.156Z,55.33
2023-06-09T00:35:19.546Z,55.24
2023-06-09T00:38:22.392Z,55.26
2023-06-09T00:41:27.194Z,55.44
2023-06-09T00:44:29.976Z,55.24
2023-06-09T00:47:33.181Z,55.38
2023-06-09T00:50:36.328Z,56.17
2023-06-09T00:53:40.018Z,55.95
2023-06-09T00:56:44.438Z,56.05
2023-06-09T00:59:47.270Z,56.95
2023-06-09T01:02:50.546Z,57.31
2023-06-09T01:06:01.112Z,57.33
2023-06-09T01:09:13.811Z,57.35
2023-06-09T01:12:33.988Z,57.50
2023-06-09T01:15:42.390Z,57.29
2023-06-09T01:18:47.023Z,57.91
2023-06-09T01:21:53.490Z,58.17
2023-06-09T01:25:06.370Z,58.21
2023-06-09T01:28:13.288Z,58.49
2023-06-09T01:31:17.499Z,58.84
2023-06-09T01:34:20.915Z,58.47
2023-06-09T01:37:24.482Z,58.86
2023-06-09T01:40:27.937Z,59.28
2023-06-09T01:43:32.251Z,59.66
2023-06-09T01:46:35.323Z,59.63
2023-06-09T01:49:44.679Z,60.06
2023-06-09T01:52:54.569Z,59.52
2023-06-09T01:56:04.272Z,59.25
2023-06-09T01:59:10.860Z,59.27
2023-06-09T02:02:15.004Z,59.47
2023-06-09T02:05:19.941Z,59.47
2023-06-09T02:08:23.318Z,59.95
2023-06-09T02:11:26.647Z,59.85
2023-06-09T02:14:35.252Z,59.99
2023-06-09T02:17:38.091Z,60.10
2023-06-09T02:20:41.820Z,60.01
2023-06-09T02:23:44.965Z,60.03
2023-06-09T02:26:51.561Z,60.16
2023-06-09T02:29:55.879Z,60.29
2023-06-09T02:32:59.598Z,60.20
2023-06-09T02:36:02.516Z,60.29
2023-06-09T02:39:07.050Z,60.45
2023-06-09T02:42:10.075Z,60.42
2023-06-09T02:45:14.685Z,60.92
2023-06-09T02:48:17.550Z,61.55
2023-06-09T02:51:20.532Z,62.15
2023-06-09T02:54:23.260Z,61.95
2023-06-09T02:57:27.078Z,61.84
2023-06-09T03:00:34.574Z,62.51
2023-06-09T03:03:39.612Z,61.67
2023-06-09T03:06:44.712Z,62.40
2023-06-09T03:09:47.571Z,62.60
2023-06-09T03:12:50.525Z,62.31
2023-06-09T03:15:55.818Z,62.35
2023-06-09T03:18:58.764Z,62.14
2023-06-09T03:22:04.819Z,62.66
2023-06-09T03:25:08.270Z,63.38
2023-06-09T03:28:11.616Z,62.20
2023-06-09T03:31:15.799Z,63.02
2023-06-09T03:34:18.775Z,63.16
2023-06-09T03:37:21.543Z,62.92
2023-06-09T03:40:24.782Z,62.52
2023-06-09T03:43:27.504Z,63.37
2023-06-09T03:46:32.192Z,62.69
2023-06-09T03:49:34.976Z,63.10
2023-06-09T03:52:41.062Z,63.39
2023-06-09T03:55:44.335Z,61.92
2023-06-09T03:58:47.663Z,61.86
2023-06-09T04:01:52.255Z,61.47
2023-06-09T04:04:55.061Z,59.86
2023-06-09T04:07:58.399Z,60.14
2023-06-09T04:11:01.143Z,60.79
2023-06-09T04:14:04.386Z,59.30
2023-06-09T04:17:08.542Z,59.13
2023-06-09T04:20:13.470Z,58.30
2023-06-09T04:23:16.262Z,57.32
2023-06-09T04:26:19.203Z,54.63
2023-06-09T04:29:24.034Z,55.53
2023-06-09T04:32:33.787Z,54.16
2023-06-09T04:35:37.034Z,53.45
2023-06-09T04:38:40.469Z,51.70
2023-06-09T04:41:43.430Z,51.11
2023-06-09T04:44:48.814Z,51.77
2023-06-09T04:47:52.968Z,51.79
2023-06-09T04:50:55.903Z,48.49
2023-06-09T04:53:59.968Z,48.13
2023-06-09T04:57:03.932Z,45.99
2023-06-09T05:00:09.079Z,45.45
2023-06-09T05:03:14.530Z,45.85
2023-06-09T05:06:17.595Z,44.13
2023-06-09T05:09:20.317Z,43.43
2023-06-09T05:12:23.066Z,43.72
2023-06-09T05:15:27.364Z,41.17
2023-06-09T05:18:32.354Z,39.92
2023-06-09T05:21:35.861Z,38.63
2023-06-09T05:24:38.799Z,38.39
2023-06-09T05:27:41.752Z,37.69
2023-06-09T05:30:44.649Z,35.76
2023-06-09T05:33:48.867Z,36.14
2023-06-09T05:36:51.787Z,35.03
2023-06-09T05:39:54.667Z,35.86
2023-06-09T05:42:57.493Z,35.49
2023-06-09T05:46:00.484Z,35.63
2023-06-09T05:49:04.618Z,33.58
2023-06-09T05:52:07.658Z,32.83
2023-06-09T05:55:11.091Z,33.53
2023-06-09T05:58:14.025Z,31.42
2023-06-09T06:01:17.308Z,32.77
2023-06-09T06:04:21.633Z,31.27
2023-06-09T06:07:24.578Z,30.33
2023-06-09T06:10:27.482Z,28.85
2023-06-09T06:13:30.219Z,29.90
2023-06-09T06:16:33.185Z,28.67
2023-06-09T06:19:37.406Z,28.67
2023-06-09T06:22:40.386Z,27.60
2023-06-09T06:29:03.917Z,27.11
2023-06-09T06:32:08.226Z,27.46
2023-06-09T06:35:12.402Z,28.10
2023-06-09T06:38:15.216Z,26.92
2023-06-09T06:41:18.082Z,27.76
2023-06-09T06:44:21.378Z,27.74
2023-06-09T06:47:24.270Z,26.27
2023-06-09T06:50:29.406Z,26.22
2023-06-09T06:53:32.162Z,25.80
2023-06-09T06:56:35.072Z,24.58
2023-06-09T06:59:37.906Z,25.05
2023-06-09T07:02:41.153Z,24.83
2023-06-09T07:05:45.834Z,25.08
2023-06-09T07:08:48.678Z,24.12
2023-06-09T07:11:51.645Z,24.99
2023-06-09T07:14:54.491Z,23.96
2023-06-09T07:17:57.467Z,24.45
2023-06-09T07:21:04.134Z,23.77
2023-06-09T07:24:08.433Z,25.74
2023-06-09T07:27:11.346Z,23.47
2023-06-09T07:30:14.528Z,23.89
2023-06-09T07:33:17.867Z,25.63
2023-06-09T07:36:21.955Z,24.85
2023-06-09T07:39:24.898Z,24.90
2023-06-09T07:42:27.745Z,24.68
2023-06-09T07:45:31.221Z,24.55
2023-06-09T07:48:34.196Z,24.77
2023-06-09T07:51:38.979Z,25.37
2023-06-09T07:54:41.808Z,26.35
2023-06-09T07:57:45.037Z,26.95
2023-06-09T08:00:47.798Z,24.99
2023-06-09T08:03:50.841Z,24.05
2023-06-09T08:06:55.204Z,23.51
2023-06-09T08:09:58.122Z,23.87
2023-06-09T08:13:00.848Z,23.39
2023-06-09T08:16:03.601Z,23.10
2023-06-09T08:19:06.470Z,24.38
2023-06-09T08:22:10.691Z,22.58
2023-06-09T08:25:13.975Z,22.83
2023-06-09T08:28:16.952Z,21.15
2023-06-09T08:31:19.912Z,21.85
2023-06-09T08:34:22.671Z,22.43
2023-06-09T08:37:27.889Z,22.52
2023-06-09T08:40:30.774Z,22.67
2023-06-09T08:43:33.530Z,21.97
2023-06-09T08:46:38.014Z,23.07
2023-06-09T08:49:42.191Z,24.23
2023-06-09T08:52:46.816Z,24.58
2023-06-09T08:55:50.253Z,25.61
2023-06-09T08:58:53.852Z,25.60
2023-06-09T09:01:57.649Z,26.14
2023-06-09T09:05:01.782Z,25.62
2023-06-09T09:08:06.364Z,26.89
2023-06-09T09:11:09.246Z,26.97
2023-06-09T09:14:12.571Z,26.93
2023-06-09T09:17:17.310Z,25.68
2023-06-09T09:20:20.365Z,25.66
2023-06-09T09:23:31.005Z,25.43
2023-06-09T09:26:34.400Z,26.49
2023-06-09T09:29:43.123Z,26.17
2023-06-09T09:32:46.270Z,25.83
2023-06-09T09:35:50.692Z,24.13
2023-06-09T09:38:57.217Z,23.87
2023-06-09T09:42:04.469Z,22.87
2023-06-09T09:45:08.565Z,23.24
2023-06-09T09:48:12.516Z,23.07
2023-06-09T09:51:18.753Z,22.54
2023-06-09T09:54:24.928Z,22.77
2023-06-09T09:57:31.863Z,23.08
2023-06-09T10:00:36.775Z,22.23
2023-06-09T10:03:42.937Z,23.34
2023-06-09T10:06:46.131Z,23.47
2023-06-09T10:09:52.655Z,23.46
2023-06-09T10:12:57.486Z,24.34
2023-06-09T10:16:01.437Z,24.18
2023-06-09T10:19:05.124Z,25.38
2023-06-09T10:22:09.107Z,24.34
2023-06-09T10:25:14.023Z,24.41
2023-06-09T10:28:17.828Z,25.30
2023-06-09T10:31:22.177Z,25.13
2023-06-09T10:34:26.259Z,24.80
2023-06-09T10:37:30.975Z,24.95
2023-06-09T10:40:44.895Z,23.26
2023-06-09T10:44:09.322Z,22.86
2023-06-09T10:47:12.368Z,23.24
2023-06-09T10:50:26.230Z,23.67
2023-06-09T10:53:29.207Z,23.43
2023-06-09T10:56:37.182Z,24.21
2023-06-09T11:00:13.243Z,23.97
2023-06-09T11:03:32.923Z,24.98
2023-06-09T11:07:14.813Z,24.67
2023-06-09T11:10:38.386Z,24.54
2023-06-09T11:13:42.667Z,24.05
2023-06-09T11:17:18.612Z,24.04
2023-06-09T11:20:23.917Z,24.17
2023-06-09T11:23:26.705Z,23.77
2023-06-09T11:26:30.217Z,23.65
2023-06-09T11:29:34.480Z,22.84
2023-06-09T11:32:46.958Z,23.21
2023-06-09T11:35:50.153Z,22.52
2023-06-09T11:38:53.510Z,22.69
2023-06-09T11:41:58.132Z,23.11
2023-06-09T11:45:04.728Z,22.19
2023-06-09T11:48:08.988Z,22.35
2023-06-09T11:51:12.285Z,22.31
2023-06-09T11:54:15.174Z,22.23
2023-06-09T11:57:18.521Z,21.78
2023-06-09T12:00:27.810Z,21.36
2023-06-09T12:03:34.489Z,21.92
2023-06-09T12:06:38.718Z,22.20
2023-06-09T12:09:42.737Z,21.33
2023-06-09T12:12:46.643Z,22.19
2023-06-09T12:15:55.387Z,22.72
2023-06-09T12:18:58.151Z,22.45
2023-06-09T12:22:02.719Z,21.91
2023-06-09T12:25:20.525Z,20.78
2023-06-09T12:28:24.882Z,21.17
2023-06-09T12:31:29.186Z,20.50
2023-06-09T12:34:31.953Z,20.99
2023-06-09T12:37:39.207Z,22.48
2023-06-09T12:40:50.426Z,21.89
2023-06-09T12:43:56.089Z,21.19
2023-06-09T12:47:00.216Z,21.60
2023-06-09T12:50:03.008Z,21.41
2023-06-09T12:53:08.287Z,20.94
2023-06-09T12:56:11.021Z,21.12
2023-06-09T12:59:13.933Z,21.16
2023-06-09T13:02:18.219Z,20.21
2023-06-09T13:05:22.204Z,20.51
2023-06-09T13:08:25.272Z,20.48
2023-06-09T13:11:28.613Z,20.91
2023-06-09T13:14:31.515Z,20.36
2023-06-09T13:17:35.860Z,19.79
2023-06-09T13:20:38.758Z,21.15
2023-06-09T13:23:41.732Z,20.77
2023-06-09T13:26:44.943Z,20.15
2023-06-09T13:29:47.791Z,19.95
2023-06-09T13:32:51.958Z,20.00
2023-06-09T13:35:55.604Z,19.63
2023-06-09T13:38:58.340Z,20.24
2023-06-09T13:42:01.219Z,20.57
2023-06-09T13:45:04.171Z,19.55
2023-06-09T13:48:08.961Z,20.68
2023-06-09T13:51:11.818Z,20.17
2023-06-09T13:54:14.621Z,19.93
2023-06-09T13:57:17.819Z,20.22
2023-06-09T14:00:21.115Z,19.71
2023-06-09T14:03:25.618Z,19.84
2023-06-09T14:06:28.466Z,20.33
2023-06-09T14:09:31.273Z,20.20
2023-06-09T14:12:34.943Z,19.51
2023-06-09T14:15:37.826Z,19.90
2023-06-09T14:18:42.817Z,19.46
2023-06-09T14:21:45.743Z,19.80
2023-06-09T14:24:48.767Z,19.59
2023-06-09T14:27:54.657Z,20.27
2023-06-09T14:30:57.629Z,19.45
2023-06-09T14:34:01.717Z,19.88
2023-06-09T14:37:04.655Z,19.83
2023-06-09T14:40:09.897Z,19.96
2023-06-09T14:43:12.802Z,21.06
2023-06-09T14:46:16.381Z,20.71
2023-06-09T14:49:20.790Z,20.65
2023-06-09T14:52:23.658Z,20.82
2023-06-09T14:55:28.160Z,19.95
2023-06-09T14:58:31.114Z,20.54
2023-06-09T15:01:33.933Z,20.61
2023-06-09T15:04:38.346Z,21.09
2023-06-09T15:07:41.114Z,21.39
2023-06-09T15:10:46.079Z,21.02
2023-06-09T15:13:48.996Z,21.33
2023-06-09T15:16:52.994Z,20.95
2023-06-09T15:19:57.514Z,21.35
2023-06-09T15:23:01.725Z,21.19
2023-06-09T15:26:04.659Z,20.91
2023-06-09T15:29:07.408Z,21.48
2023-06-09T15:32:10.578Z,20.76
2023-06-09T15:35:14.869Z,21.54
2023-06-09T15:38:18.372Z,21.03
2023-06-09T15:41:21.534Z,21.47
2023-06-09T15:44:24.230Z,21.50
2023-06-09T15:47:30.275Z,22.00
2023-06-09T15:50:34.467Z,21.92
2023-06-09T15:53:38.008Z,22.17
2023-06-09T15:56:40.972Z,21.96
2023-06-09T15:59:43.890Z,21.93
2023-06-09T16:02:46.655Z,22.85
2023-06-09T16:05:51.093Z,23.09
2023-06-09T16:08:53.877Z,23.07
2023-06-09T16:11:56.820Z,23.51
2023-06-09T16:15:00.281Z,23.51
2023-06-09T16:18:04.714Z,24.42
2023-06-09T16:21:09.285Z,24.44
2023-06-09T16:24:12.057Z,24.58
2023-06-09T16:27:14.894Z,24.26
2023-06-09T16:30:17.763Z,24.68
2023-06-09T16:33:20.561Z,24.86
2023-06-09T16:36:24.849Z,24.97
2023-06-09T16:39:27.566Z,24.91
2023-06-09T16:42:30.491Z,25.57
2023-06-09T16:45:33.449Z,25.29
2023-06-09T16:48:36.484Z,25.28
2023-06-09T16:51:40.788Z,25.92
2023-06-09T16:54:43.511Z,25.86
2023-06-09T16:57:46.389Z,26.12
2023-06-09T17:00:49.196Z,26.23
2023-06-09T17:03:51.991Z,26.65
2023-06-09T17:06:56.284Z,27.13
2023-06-09T17:10:00.026Z,27.25
2023-06-09T17:13:03.145Z,27.80
2023-06-09T17:16:06.480Z,28.10
2023-06-09T17:19:09.272Z,27.58
2023-06-09T17:22:13.530Z,28.03
2023-06-09T17:25:16.632Z,28.95
2023-06-09T17:28:19.504Z,29.30
2023-06-09T17:31:22.258Z,29.19
2023-06-09T17:34:25.211Z,29.49
2023-06-09T17:37:29.362Z,29.69
2023-06-09T17:40:32.112Z,30.51
2023-06-09T17:43:34.973Z,31.00
2023-06-09T17:46:37.861Z,30.53
2023-06-09T17:49:40.607Z,30.82
2023-06-09T17:52:44.869Z,30.82
2023-06-09T17:55:47.580Z,31.10
2023-06-09T17:58:50.480Z,30.67
2023-06-09T18:01:53.494Z,31.53
2023-06-09T18:04:56.184Z,31.49
2023-06-09T18:08:00.570Z,31.25
2023-06-09T18:11:04.266Z,31.69
2023-06-09T18:14:07.142Z,31.55
2023-06-09T18:17:09.958Z,31.72
2023-06-09T18:20:13.178Z,32.54
2023-06-09T18:23:17.328Z,33.02
2023-06-09T18:26:20.271Z,33.36
2023-06-09T18:29:23.072Z,33.53
2023-06-09T18:32:25.995Z,33.94
2023-06-09T18:35:28.790Z,34.14
2023-06-09T18:38:33.060Z,34.31
2023-06-09T18:41:35.827Z,35.54
2023-06-09T18:44:38.755Z,35.78
2023-06-09T18:47:42.166Z,36.12
2023-06-09T18:50:45.891Z,36.46
2023-06-09T18:53:50.178Z,36.60
2023-06-09T18:56:53.046Z,37.12
2023-06-09T18:59:55.803Z,37.45
2023-06-09T19:02:58.869Z,37.85
2023-06-09T19:06:01.744Z,38.62
2023-06-09T19:09:06.358Z,38.14
2023-06-09T19:12:09.805Z,39.14
2023-06-09T19:15:12.606Z,39.64
2023-06-09T19:18:15.702Z,40.76
2023-06-09T19:21:19.788Z,41.22
2023-06-09T19:24:23.949Z,41.77
2023-06-09T19:27:26.828Z,41.92
2023-06-09T19:30:29.719Z,42.76
2023-06-09T19:33:33.225Z,43.34
2023-06-09T19:36:36.160Z,43.87
2023-06-09T19:39:40.280Z,44.01
2023-06-09T19:42:43.214Z,43.70
2023-06-09T19:45:45.998Z,44.97
2023-06-09T19:48:48.989Z,44.96
2023-06-09T19:51:52.043Z,45.25
2023-06-09T19:54:56.180Z,46.24
2023-06-09T19:57:59.078Z,46.29
2023-06-09T20:01:02.662Z,47.12
2023-06-09T20:04:05.883Z,48.16
2023-06-09T20:07:08.885Z,47.91
2023-06-09T20:10:13.163Z,48.96
2023-06-09T20:13:16.787Z,49.12
2023-06-09T20:16:20.632Z,49.54
2023-06-09T20:19:23.416Z,48.98
2023-06-09T20:22:26.368Z,49.59
2023-06-09T20:25:31.043Z,49.54
2023-06-09T20:28:34.013Z,49.73
2023-06-09T20:31:36.861Z,51.18
2023-06-09T20:34:39.804Z,51.41
2023-06-09T20:37:42.655Z,52.12
2023-06-09T20:40:46.985Z,51.17
2023-06-09T20:43:50.592Z,51.14
2023-06-09T20:46:53.909Z,52.82
2023-06-09T20:49:57.569Z,52.07
2023-06-09T20:53:00.488Z,53.35
2023-06-09T20:56:04.962Z,53.21
2023-06-09T20:59:07.867Z,53.91
2023-06-09T21:02:10.986Z,53.99
2023-06-09T21:05:13.914Z,54.63
2023-06-09T21:08:16.974Z,54.90
2023-06-09T21:14:24.397Z,55.78
2023-06-09T21:17:29.699Z,55.83
2023-06-09T21:20:34.023Z,56.69
2023-06-09T21:23:37.526Z,56.19
2023-06-09T21:26:42.537Z,57.28
2023-06-09T21:29:45.440Z,57.77
2023-06-09T21:32:48.302Z,58.16
2023-06-09T21:35:51.366Z,58.18
2023-06-09T21:38:54.273Z,59.10
2023-06-09T21:41:58.374Z,59.50
2023-06-09T21:45:01.299Z,59.26
2023-06-09T21:48:04.726Z,59.53
2023-06-09T21:51:07.475Z,59.58
2023-06-09T21:54:10.324Z,59.81
2023-06-09T21:57:14.453Z,59.34
2023-06-09T22:00:19.194Z,59.61
2023-06-09T22:03:22.127Z,60.03
2023-06-09T22:06:24.997Z,60.00
2023-06-09T22:09:27.934Z,60.93
2023-06-09T22:12:38.850Z,59.51
2023-06-09T22:15:42.737Z,60.98
2023-06-09T22:18:47.374Z,61.02
2023-06-09T22:21:50.301Z,61.75
2023-06-09T22:24:53.189Z,61.31
2023-06-09T22:27:57.294Z,62.02
2023-06-09T22:31:00.198Z,62.06
2023-06-09T22:34:02.971Z,62.23
2023-06-09T22:37:06.657Z,63.46
2023-06-09T22:40:10.421Z,62.88
2023-06-09T22:43:14.799Z,63.40
2023-06-09T22:46:17.682Z,61.59
2023-06-09T22:49:21.636Z,61.17
2023-06-09T22:52:24.460Z,61.16
2023-06-09T22:55:27.249Z,60.09
2023-06-09T22:58:31.471Z,60.96
2023-06-09T23:01:34.233Z,62.16
2023-06-09T23:04:37.199Z,62.59
2023-06-09T23:07:40.848Z,61.81
2023-06-09T23:10:43.780Z,61.52
2023-06-09T23:13:47.944Z,62.19
2023-06-09T23:16:50.941Z,62.24
2023-06-09T23:19:53.970Z,62.57
2023-06-09T23:23:00.544Z,61.91
2023-06-09T23:26:03.596Z,62.02
2023-06-09T23:29:07.748Z,62.40
2023-06-09T23:32:13.154Z,62.44
2023-06-09T23:35:18.255Z,61.78
2023-06-09T23:38:21.763Z,61.28
2023-06-09T23:41:26.714Z,61.68
2023-06-09T23:44:31.047Z,62.15
2023-06-09T23:47:33.884Z,62.32
2023-06-09T23:50:36.832Z,62.28
2023-06-09T23:53:39.684Z,62.46
2023-06-09T23:56:45.595Z,62.02
2023-06-09T23:59:49.829Z,62.14
